createdAt,value
2023-09-03T00:00:25.165Z,1.60
2023-09-03T00:05:27.122Z,1.23
2023-09-03T00:10:29.307Z,1.60
2023-09-03T00:15:31.175Z,1.60
2023-09-03T00:20:33.233Z,1.45
2023-09-03T00:25:38.733Z,1.13
2023-09-03T00:30:40.791Z,1.35
2023-09-03T00:35:45.203Z,1.58
2023-09-03T00:40:47.055Z,1.40
2023-09-03T00:45:50.144Z,1.30
2023-09-03T00:50:53.755Z,1.60
2023-09-03T00:55:55.869Z,1.20
2023-09-03T01:00:58.820Z,1.48
2023-09-03T01:06:00.816Z,1.48
2023-09-03T01:11:21.452Z,1.30
2023-09-03T01:16:32.023Z,1.10
2023-09-03T01:21:50.669Z,1.58
2023-09-03T01:27:38.796Z,1.23
2023-09-03T01:32:40.827Z,1.02
2023-09-03T01:37:43.195Z,1.30
2023-09-03T01:42:45.138Z,0.85
2023-09-03T01:47:56.505Z,1.70
2023-09-03T01:53:06.504Z,1.33
2023-09-03T01:58:11.253Z,1.30
2023-09-03T02:03:14.999Z,1.35
2023-09-03T02:08:16.889Z,1.08
2023-09-03T02:13:19.254Z,1.33
2023-09-03T02:18:21.357Z,1.15
2023-09-03T02:23:24.815Z,1.02
2023-09-03T02:28:26.725Z,1.60
2023-09-03T02:33:30.086Z,1.00
2023-09-03T02:38:33.096Z,1.65
2023-09-03T02:43:34.885Z,1.20
2023-09-03T02:48:36.816Z,1.33
2023-09-03T02:53:38.813Z,1.20
2023-09-03T02:58:41.269Z,1.25
2023-09-03T03:03:45.914Z,1.15
2023-09-03T03:08:47.813Z,1.17
2023-09-03T03:13:53.468Z,1.10
2023-09-03T03:18:59.019Z,1.05
2023-09-03T03:24:07.070Z,0.88
2023-09-03T03:29:11.956Z,1.40
2023-09-03T03:34:29.210Z,0.88
2023-09-03T03:39:33.881Z,1.17
2023-09-03T03:44:36.029Z,1.05
2023-09-03T03:49:38.063Z,0.93
2023-09-03T03:54:41.009Z,1.00
2023-09-03T03:59:42.938Z,0.90
2023-09-03T04:04:45.400Z,1.15
2023-09-03T04:09:47.391Z,0.98
2023-09-03T04:14:49.308Z,1.02
2023-09-03T04:19:51.829Z,1.05
2023-09-03T04:24:53.776Z,0.98
2023-09-03T04:29:55.822Z,0.82
2023-09-03T04:34:58.370Z,1.00
2023-09-03T04:40:04.501Z,0.93
2023-09-03T04:45:07.046Z,0.90
2023-09-03T04:50:09.655Z,1.20
2023-09-03T04:55:12.911Z,1.00
2023-09-03T05:00:15.016Z,0.98
2023-09-03T05:05:19.290Z,0.82
2023-09-03T05:10:22.657Z,1.42
2023-09-03T05:15:24.683Z,1.20
2023-09-03T05:20:26.540Z,1.13
2023-09-03T05:25:28.404Z,1.15
2023-09-03T05:30:31.829Z,1.13
2023-09-03T05:35:35.269Z,1.10
2023-09-03T05:40:37.265Z,1.13
2023-09-03T05:45:47.426Z,1.00
2023-09-03T05:50:57.835Z,1.10
2023-09-03T05:56:06.251Z,1.52
2023-09-03T06:01:12.783Z,1.45
2023-09-03T06:06:15.680Z,1.40
2023-09-03T06:11:18.757Z,1.05
2023-09-03T06:16:20.694Z,1.38
2023-09-03T06:21:22.849Z,1.85
2023-09-03T06:26:24.819Z,2.10
2023-09-03T06:31:26.899Z,2.00
2023-09-03T06:36:29.000Z,2.22
2023-09-03T06:41:31.086Z,2.30
2023-09-03T06:46:33.074Z,2.15
2023-09-03T06:51:35.058Z,2.40
2023-09-03T06:56:36.963Z,2.30
2023-09-03T07:01:39.584Z,1.92
2023-09-03T07:06:41.481Z,2.72
2023-09-03T07:11:43.344Z,3.25
2023-09-03T07:16:45.462Z,3.10
2023-09-03T07:21:48.372Z,3.90
2023-09-03T07:26:50.972Z,3.22
2023-09-03T07:31:52.891Z,3.70
2023-09-03T07:36:54.728Z,4.93
2023-09-03T07:41:57.980Z,5.50
2023-09-03T07:46:59.903Z,5.82
2023-09-03T07:52:01.835Z,5.65
2023-09-03T07:57:03.852Z,5.75
2023-09-03T08:02:05.863Z,6.38
2023-09-03T08:07:07.802Z,5.93
2023-09-03T08:12:10.346Z,5.28
2023-09-03T08:17:12.260Z,6.32
2023-09-03T08:22:14.239Z,5.45
2023-09-03T08:27:16.242Z,4.55
2023-09-03T08:32:18.174Z,3.88
2023-09-03T08:37:20.221Z,3.90
2023-09-03T08:42:23.017Z,3.80
2023-09-03T08:47:25.612Z,3.95
2023-09-03T08:52:30.092Z,3.85
2023-09-03T08:57:35.942Z,3.17
2023-09-03T09:02:38.903Z,4.60
2023-09-03T09:07:41.318Z,4.20
2023-09-03T09:12:57.695Z,3.08
2023-09-03T09:17:59.828Z,2.70
2023-09-03T09:23:02.207Z,3.03
2023-09-03T09:28:14.552Z,3.58
2023-09-03T09:33:16.428Z,2.83
2023-09-03T09:38:19.722Z,2.83
2023-09-03T09:43:22.011Z,3.75
2023-09-03T09:48:24.129Z,2.83
2023-09-03T09:53:27.854Z,3.55
2023-09-03T09:58:40.140Z,2.92
2023-09-03T10:03:44.512Z,2.92
2023-09-03T10:08:51.686Z,4.57
2023-09-03T10:13:54.059Z,4.35
2023-09-03T10:18:59.594Z,2.53
2023-09-03T10:24:07.020Z,2.75
2023-09-03T10:34:17.267Z,3.22
2023-09-03T10:39:25.169Z,2.72
2023-09-03T10:44:33.619Z,1.73
2023-09-03T10:49:43.012Z,2.15
2023-09-03T10:54:45.049Z,1.88
2023-09-03T10:59:59.365Z,1.88
2023-09-03T11:05:23.394Z,1.70
2023-09-03T11:10:26.838Z,1.85
2023-09-03T11:15:28.796Z,1.73
2023-09-03T11:25:43.134Z,1.48
2023-09-03T11:30:49.080Z,2.00
2023-09-03T11:35:52.071Z,1.90
2023-09-03T11:41:00.239Z,2.63
2023-09-03T11:46:05.753Z,2.00
2023-09-03T11:51:08.564Z,1.98
2023-09-03T11:56:14.178Z,2.00
2023-09-03T12:01:19.203Z,2.20
2023-09-03T12:06:22.484Z,2.13
2023-09-03T12:11:30.731Z,1.85
2023-09-03T12:16:46.743Z,1.80
2023-09-03T12:21:52.647Z,1.98
2023-09-03T12:27:05.601Z,2.00
2023-09-03T12:32:09.356Z,1.70
2023-09-03T12:37:11.406Z,2.10
2023-09-03T12:42:13.578Z,1.73
2023-09-03T12:47:15.628Z,1.48
2023-09-03T12:52:17.602Z,1.77
2023-09-03T12:57:21.883Z,2.08
2023-09-03T13:02:23.898Z,1.58
2023-09-03T13:07:26.628Z,1.85
2023-09-03T13:12:28.550Z,1.52
2023-09-03T13:17:33.129Z,1.60
2023-09-03T13:22:35.220Z,1.23
2023-09-03T13:27:37.130Z,2.03
2023-09-03T13:32:39.149Z,1.58
2023-09-03T13:37:41.035Z,1.30
2023-09-03T13:42:42.947Z,1.20
2023-09-03T13:47:44.885Z,0.93
2023-09-03T13:52:46.842Z,1.27
2023-09-03T13:57:48.843Z,1.25
2023-09-03T14:02:51.033Z,1.10
2023-09-03T14:07:53.137Z,1.40
2023-09-03T14:12:55.085Z,0.90
2023-09-03T14:17:57.067Z,1.27
2023-09-03T14:22:59.004Z,1.38
2023-09-03T14:28:01.425Z,0.98
2023-09-03T14:33:03.842Z,1.00
2023-09-03T14:38:06.310Z,1.00
2023-09-03T14:43:08.455Z,0.88
2023-09-03T14:48:10.539Z,1.38
2023-09-03T14:53:13.793Z,0.60
2023-09-03T14:58:17.217Z,0.55
2023-09-03T15:03:19.321Z,0.50
2023-09-03T15:08:21.818Z,0.73
2023-09-03T15:13:24.190Z,0.98
2023-09-03T15:18:26.096Z,0.77
2023-09-03T15:23:28.215Z,0.60
2023-09-03T15:28:30.869Z,0.70
2023-09-03T15:33:33.125Z,0.57
2023-09-03T15:38:38.082Z,0.50
2023-09-03T15:43:41.886Z,0.40
2023-09-03T15:48:45.013Z,0.60
2023-09-03T15:53:47.047Z,0.60
2023-09-03T15:58:49.603Z,0.70
2023-09-03T16:03:51.865Z,0.50
2023-09-03T16:08:53.825Z,0.75
2023-09-03T16:13:55.799Z,0.82
2023-09-03T16:18:57.627Z,0.68
2023-09-03T16:23:59.571Z,0.70
2023-09-03T16:29:01.611Z,0.65
2023-09-03T16:34:06.349Z,0.70
2023-09-03T16:39:08.777Z,0.70
2023-09-03T16:44:11.578Z,0.98
2023-09-03T16:49:14.115Z,1.00
2023-09-03T16:54:16.185Z,0.75
2023-09-03T16:59:18.985Z,0.65
2023-09-03T17:04:21.137Z,0.80
2023-09-03T17:09:23.316Z,1.25
2023-09-03T17:14:25.319Z,1.10
2023-09-03T17:19:27.360Z,0.93
2023-09-03T17:24:29.290Z,1.20
2023-09-03T17:29:31.473Z,1.15
2023-09-03T17:34:33.518Z,0.73
2023-09-03T17:39:35.529Z,1.00
2023-09-03T17:44:37.507Z,0.80
2023-09-03T17:49:39.717Z,1.30
2023-09-03T17:54:42.012Z,0.80
2023-09-03T17:59:44.478Z,2.03
2023-09-03T18:04:46.777Z,1.02
2023-09-03T18:09:48.897Z,0.90
2023-09-03T18:14:51.054Z,1.10
2023-09-03T18:19:53.273Z,1.10
2023-09-03T18:24:55.167Z,0.98
2023-09-03T18:29:57.960Z,1.10
2023-09-03T18:34:59.931Z,1.75
2023-09-03T18:40:01.935Z,1.73
2023-09-03T18:45:04.064Z,1.40
2023-09-03T18:50:06.658Z,2.15
2023-09-03T18:55:08.857Z,1.58
2023-09-03T19:00:14.060Z,1.17
2023-09-03T19:05:16.790Z,1.50
2023-09-03T19:10:18.663Z,1.50
2023-09-03T19:15:20.755Z,1.45
2023-09-03T19:20:22.787Z,1.33
2023-09-03T19:25:24.630Z,1.67
2023-09-03T19:30:26.512Z,1.60
2023-09-03T19:35:28.704Z,0.73
2023-09-03T19:40:32.218Z,1.15
2023-09-03T19:45:34.026Z,1.20
2023-09-03T19:50:35.837Z,1.25
2023-09-03T19:55:38.449Z,1.08
2023-09-03T20:00:41.729Z,1.25
2023-09-03T20:05:43.701Z,1.17
2023-09-03T20:10:45.574Z,1.30
2023-09-03T20:15:57.911Z,1.35
2023-09-03T20:21:03.344Z,1.15
2023-09-03T20:26:07.334Z,1.70
2023-09-03T20:31:09.434Z,1.73
2023-09-03T20:36:11.648Z,1.20
2023-09-03T20:41:13.875Z,1.02
2023-09-03T20:46:15.995Z,1.20
2023-09-03T20:51:17.834Z,1.33
2023-09-03T20:56:19.699Z,1.08
2023-09-03T21:01:22.451Z,1.33
2023-09-03T21:06:24.428Z,1.15
2023-09-03T21:11:33.077Z,1.23
2023-09-03T21:16:35.359Z,0.88
2023-09-03T21:21:38.436Z,1.17
2023-09-03T21:26:41.904Z,1.13
2023-09-03T21:31:47.067Z,1.33
2023-09-03T21:36:49.211Z,1.23
2023-09-03T21:41:51.205Z,1.00
2023-09-03T21:46:53.193Z,1.00
2023-09-03T21:51:55.027Z,1.05
2023-09-03T21:56:56.997Z,1.08
2023-09-03T22:01:59.847Z,1.08
2023-09-03T22:07:01.772Z,0.70
2023-09-03T22:12:03.854Z,1.08
2023-09-03T22:17:05.757Z,1.20
2023-09-03T22:22:07.639Z,1.20
2023-09-03T22:27:09.738Z,1.08
2023-09-03T22:32:11.610Z,0.90
2023-09-03T22:37:15.059Z,0.93
2023-09-03T22:42:17.036Z,0.98
2023-09-03T22:47:19.034Z,0.98
2023-09-03T22:52:20.920Z,1.02
2023-09-03T22:57:24.430Z,0.88
2023-09-03T23:02:26.808Z,1.13
2023-09-03T23:07:29.265Z,1.30
2023-09-03T23:12:31.429Z,1.10
2023-09-03T23:17:33.534Z,1.13
2023-09-03T23:22:35.545Z,0.77
2023-09-03T23:27:37.722Z,1.02
2023-09-03T23:32:39.650Z,0.82
2023-09-03T23:37:42.373Z,0.88
2023-09-03T23:42:44.440Z,1.10
2023-09-03T23:47:46.851Z,1.00
2023-09-03T23:52:49.015Z,1.10
2023-09-03T23:57:51.052Z,1.13
